Harrisonville, NJ

2:35 PM EDT on June 02, 2015 (GMT -0400)
Philadelphia International | | Change Station
CLOSE
Current Station
Airport
Location: Philadelphia,
Elevation: 26 ft
Nearby Weather Stations

Elev 26 ft 39.87 °N, 75.23 °W | Updated 41 minutes ago

Overcast
Overcast
56 °F
Feels Like 56 °F
N
13
Wind Variable Wind from NE

Today
High -- | Low -- °F
--% Chance of Precip.
Yesterday
High -- | Low -- °F
Precip. -- in
5:34 AM 8:23 PM
Full, 100% visible
Pressure 30.13 in
Visibility 7.0 miles
Clouds Overcast 1200 ft
Dew Point 52 °F
Humidity 87%
Rainfall 0.05 in
Snow Depth Not available.
UV 3 out of 12
Pollen .90 out of 12
Air Quality Not available.
Flu Activity Sporadic
METAR KPHL 021754Z 04011KT 7SM -RA OVC012 13/11 A3013 RMK AO2 SLP201 P0000 60002 T01330111 10133 20117 50000

More Conditions Fewer Conditions

Pressure 30.13 in
Visibility 7.0 miles
Clouds Overcast 1200 ft
Dew Point 52 °F
Humidity 87%
Rainfall 0.05 in
Snow Depth Not available.
UV 3 out of 12
Pollen .90 out of 12
Air Quality Not available.
Flu Activity Sporadic
METAR KPHL 021754Z 04011KT 7SM -RA OVC012 13/11 A3013 RMK AO2 SLP201 P0000 60002 T01330111 10133 20117 50000

More Conditions Fewer Conditions

Nowcast | as of 1:38 PM EDT on June 2, 2015

Through the middle of this afternoon some spotty light rain or driizzle is expected to occur. Rainfall amounts between 130 PM and 400 PM should average less than five hundredths of an inch.

×

10-Day Weather Forecast

×

Almanac

Astronomy

Jun. 02, 2015 Rise Set
Actual Time
Civil Twilight
Nautical Twilight
Astronomical Twilight
Moon
Length of Visible Light
Length of Day
Tomorrow will be .
, % of the Moon is Illuminated

Today's Extremes

State Highs State Lows

Community

WunderPhotos

Upload Photos

1,825,997 photos uploaded!

WunderBlogs® & News

Nearby

Air Quality

  Air Quality AQ Index Pollutant
Not available.

Snow Depth

Station Depth Elevation

Earthquake Activity

City Distance Mag. Time & Date
Minimum magnitude displayed is 2.5.

Coastal Water Temperatures

Place Temperature

Stations

Nearby Weather Stations

Station Location Temp. Windchill Dew Point Humidity Wind Precip. Elev Updated Type